sensor_id;sensor_type;location;lat;lon;timestamp;P1;durP1;ratioP1;P2;durP2;ratioP2
47413;SDS011;33163;0.000;0.000;2022-12-18T00:02:08;22.92;;;12.52;;
47413;SDS011;33163;0.000;0.000;2022-12-18T00:04:35;23.50;;;13.77;;
47413;SDS011;33163;0.000;0.000;2022-12-18T00:07:03;22.60;;;12.90;;
47413;SDS011;33163;0.000;0.000;2022-12-18T00:09:30;20.80;;;12.63;;
47413;SDS011;33163;0.000;0.000;2022-12-18T00:11:57;24.77;;;13.57;;
47413;SDS011;33163;0.000;0.000;2022-12-18T00:14:23;24.20;;;13.70;;
47413;SDS011;33163;0.000;0.000;2022-12-18T00:16:50;26.45;;;13.85;;
47413;SDS011;33163;0.000;0.000;2022-12-18T00:19:17;25.13;;;13.75;;
47413;SDS011;33163;0.000;0.000;2022-12-18T00:21:44;23.63;;;13.05;;
47413;SDS011;33163;0.000;0.000;2022-12-18T00:24:12;24.55;;;14.88;;
47413;SDS011;33163;0.000;0.000;2022-12-18T00:26:39;24.73;;;13.07;;
47413;SDS011;33163;0.000;0.000;2022-12-18T00:29:07;22.20;;;13.43;;
47413;SDS011;33163;0.000;0.000;2022-12-18T00:31:36;23.08;;;13.75;;
47413;SDS011;33163;0.000;0.000;2022-12-18T00:34:03;25.17;;;13.82;;
47413;SDS011;33163;0.000;0.000;2022-12-18T00:36:31;24.30;;;13.55;;
47413;SDS011;33163;0.000;0.000;2022-12-18T00:38:59;23.25;;;13.10;;
47413;SDS011;33163;0.000;0.000;2022-12-18T00:41:29;22.63;;;13.40;;
47413;SDS011;33163;0.000;0.000;2022-12-18T00:44:14;26.13;;;12.90;;
47413;SDS011;33163;0.000;0.000;2022-12-18T00:46:42;24.80;;;13.32;;
47413;SDS011;33163;0.000;0.000;2022-12-18T00:49:10;26.33;;;14.20;;
47413;SDS011;33163;0.000;0.000;2022-12-18T00:51:37;19.90;;;11.60;;
47413;SDS011;33163;0.000;0.000;2022-12-18T00:54:04;23.98;;;13.93;;
47413;SDS011;33163;0.000;0.000;2022-12-18T00:56:33;22.60;;;13.20;;
47413;SDS011;33163;0.000;0.000;2022-12-18T00:59:02;21.88;;;13.13;;
47413;SDS011;33163;0.000;0.000;2022-12-18T01:01:29;22.75;;;13.15;;
47413;SDS011;33163;0.000;0.000;2022-12-18T01:03:55;21.52;;;13.70;;
47413;SDS011;33163;0.000;0.000;2022-12-18T01:06:22;24.67;;;13.25;;
47413;SDS011;33163;0.000;0.000;2022-12-18T01:08:49;24.40;;;13.32;;
47413;SDS011;33163;0.000;0.000;2022-12-18T01:11:17;25.75;;;12.48;;
47413;SDS011;33163;0.000;0.000;2022-12-18T01:13:46;22.55;;;13.45;;
47413;SDS011;33163;0.000;0.000;2022-12-18T01:16:13;23.95;;;12.93;;
47413;SDS011;33163;0.000;0.000;2022-12-18T01:18:41;22.38;;;12.77;;
47413;SDS011;33163;0.000;0.000;2022-12-18T01:21:09;22.00;;;12.77;;
47413;SDS011;33163;0.000;0.000;2022-12-18T01:23:37;23.00;;;13.95;;
47413;SDS011;33163;0.000;0.000;2022-12-18T01:26:04;24.25;;;14.18;;
47413;SDS011;33163;0.000;0.000;2022-12-18T01:28:32;26.27;;;13.10;;
47413;SDS011;33163;0.000;0.000;2022-12-18T01:31:10;25.20;;;13.45;;
47413;SDS011;33163;0.000;0.000;2022-12-18T01:33:41;23.35;;;12.75;;
47413;SDS011;33163;0.000;0.000;2022-12-18T01:36:08;22.30;;;12.10;;
47413;SDS011;33163;0.000;0.000;2022-12-18T01:38:40;23.58;;;12.88;;
47413;SDS011;33163;0.000;0.000;2022-12-18T01:41:07;21.42;;;13.27;;
47413;SDS011;33163;0.000;0.000;2022-12-18T01:43:42;25.20;;;13.15;;
47413;SDS011;33163;0.000;0.000;2022-12-18T01:46:18;22.63;;;13.32;;
47413;SDS011;33163;0.000;0.000;2022-12-18T01:48:47;23.17;;;13.15;;
47413;SDS011;33163;0.000;0.000;2022-12-18T01:51:16;21.15;;;13.02;;
47413;SDS011;33163;0.000;0.000;2022-12-18T01:53:43;23.13;;;13.30;;
47413;SDS011;33163;0.000;0.000;2022-12-18T01:56:12;23.73;;;14.05;;
47413;SDS011;33163;0.000;0.000;2022-12-18T01:58:41;24.75;;;14.05;;
47413;SDS011;33163;0.000;0.000;2022-12-18T02:01:14;24.02;;;13.50;;
47413;SDS011;33163;0.000;0.000;2022-12-18T02:03:42;21.30;;;13.13;;
47413;SDS011;33163;0.000;0.000;2022-12-18T02:06:12;23.80;;;13.05;;
47413;SDS011;33163;0.000;0.000;2022-12-18T02:08:45;23.95;;;13.88;;
47413;SDS011;33163;0.000;0.000;2022-12-18T02:11:22;21.38;;;12.80;;
47413;SDS011;33163;0.000;0.000;2022-12-18T02:14:00;25.50;;;14.07;;
47413;SDS011;33163;0.000;0.000;2022-12-18T02:16:37;24.75;;;13.63;;
47413;SDS011;33163;0.000;0.000;2022-12-18T02:21:44;23.73;;;12.70;;
47413;SDS011;33163;0.000;0.000;2022-12-18T02:24:23;25.63;;;13.73;;
47413;SDS011;33163;0.000;0.000;2022-12-18T02:27:01;22.83;;;12.93;;
47413;SDS011;33163;0.000;0.000;2022-12-18T02:29:32;22.85;;;12.70;;
47413;SDS011;33163;0.000;0.000;2022-12-18T02:32:04;25.98;;;14.05;;
47413;SDS011;33163;0.000;0.000;2022-12-18T02:34:37;28.55;;;15.07;;
47413;SDS011;33163;0.000;0.000;2022-12-18T02:37:05;25.45;;;14.35;;
47413;SDS011;33163;0.000;0.000;2022-12-18T02:39:35;27.33;;;13.88;;
47413;SDS011;33163;0.000;0.000;2022-12-18T02:42:05;25.48;;;13.45;;
47413;SDS011;33163;0.000;0.000;2022-12-18T02:44:33;22.65;;;12.93;;
47413;SDS011;33163;0.000;0.000;2022-12-18T02:47:00;25.20;;;14.45;;
47413;SDS011;33163;0.000;0.000;2022-12-18T02:49:32;24.60;;;13.27;;
47413;SDS011;33163;0.000;0.000;2022-12-18T02:52:07;26.65;;;14.75;;
47413;SDS011;33163;0.000;0.000;2022-12-18T02:54:47;26.08;;;14.05;;
47413;SDS011;33163;0.000;0.000;2022-12-18T02:57:23;24.90;;;14.50;;
47413;SDS011;33163;0.000;0.000;2022-12-18T02:59:57;23.98;;;13.48;;
47413;SDS011;33163;0.000;0.000;2022-12-18T03:02:29;25.67;;;14.50;;
47413;SDS011;33163;0.000;0.000;2022-12-18T03:05:03;22.92;;;13.68;;
47413;SDS011;33163;0.000;0.000;2022-12-18T03:07:35;27.67;;;13.63;;
47413;SDS011;33163;0.000;0.000;2022-12-18T03:10:06;23.95;;;13.50;;
47413;SDS011;33163;0.000;0.000;2022-12-18T03:12:40;22.90;;;13.40;;
47413;SDS011;33163;0.000;0.000;2022-12-18T03:15:10;25.58;;;14.57;;
47413;SDS011;33163;0.000;0.000;2022-12-18T03:17:41;22.80;;;12.75;;
47413;SDS011;33163;0.000;0.000;2022-12-18T03:20:13;23.77;;;13.20;;
47413;SDS011;33163;0.000;0.000;2022-12-18T03:22:43;24.23;;;13.93;;
47413;SDS011;33163;0.000;0.000;2022-12-18T03:25:15;23.52;;;14.00;;
47413;SDS011;33163;0.000;0.000;2022-12-18T03:27:46;26.30;;;13.98;;
47413;SDS011;33163;0.000;0.000;2022-12-18T03:30:16;24.70;;;13.63;;
47413;SDS011;33163;0.000;0.000;2022-12-18T03:32:44;25.30;;;13.70;;
47413;SDS011;33163;0.000;0.000;2022-12-18T03:35:16;24.42;;;13.38;;
47413;SDS011;33163;0.000;0.000;2022-12-18T03:37:46;24.08;;;13.32;;
47413;SDS011;33163;0.000;0.000;2022-12-18T03:40:13;25.63;;;14.10;;
47413;SDS011;33163;0.000;0.000;2022-12-18T03:42:42;22.45;;;13.00;;
47413;SDS011;33163;0.000;0.000;2022-12-18T03:45:18;21.73;;;12.87;;
47413;SDS011;33163;0.000;0.000;2022-12-18T03:47:52;22.13;;;13.00;;
47413;SDS011;33163;0.000;0.000;2022-12-18T03:50:26;27.55;;;13.88;;
47413;SDS011;33163;0.000;0.000;2022-12-18T03:53:00;23.92;;;13.35;;
47413;SDS011;33163;0.000;0.000;2022-12-18T03:58:03;17.52;;;11.35;;
47413;SDS011;33163;0.000;0.000;2022-12-18T04:00:32;21.80;;;13.27;;
47413;SDS011;33163;0.000;0.000;2022-12-18T04:03:00;21.33;;;12.43;;
47413;SDS011;33163;0.000;0.000;2022-12-18T04:05:30;24.17;;;13.18;;
47413;SDS011;33163;0.000;0.000;2022-12-18T04:08:00;23.20;;;13.35;;
47413;SDS011;33163;0.000;0.000;2022-12-18T04:10:28;23.92;;;13.55;;
47413;SDS011;33163;0.000;0.000;2022-12-18T04:12:55;24.33;;;13.02;;
47413;SDS011;33163;0.000;0.000;2022-12-18T04:15:24;21.73;;;13.13;;
47413;SDS011;33163;0.000;0.000;2022-12-18T04:17:51;21.98;;;13.32;;
47413;SDS011;33163;0.000;0.000;2022-12-18T04:20:17;22.23;;;13.05;;
47413;SDS011;33163;0.000;0.000;2022-12-18T04:22:44;22.13;;;13.07;;
47413;SDS011;33163;0.000;0.000;2022-12-18T04:25:11;21.65;;;12.98;;
47413;SDS011;33163;0.000;0.000;2022-12-18T04:27:38;21.95;;;13.52;;
47413;SDS011;33163;0.000;0.000;2022-12-18T04:30:06;21.48;;;12.55;;
47413;SDS011;33163;0.000;0.000;2022-12-18T04:32:34;21.88;;;12.63;;
47413;SDS011;33163;0.000;0.000;2022-12-18T04:35:01;21.88;;;13.15;;
47413;SDS011;33163;0.000;0.000;2022-12-18T04:37:29;20.58;;;12.93;;
47413;SDS011;33163;0.000;0.000;2022-12-18T04:39:55;20.42;;;11.65;;
47413;SDS011;33163;0.000;0.000;2022-12-18T04:42:22;21.35;;;12.18;;
47413;SDS011;33163;0.000;0.000;2022-12-18T04:44:49;21.58;;;12.77;;
47413;SDS011;33163;0.000;0.000;2022-12-18T04:47:16;23.48;;;13.07;;
47413;SDS011;33163;0.000;0.000;2022-12-18T04:49:44;23.25;;;13.18;;
47413;SDS011;33163;0.000;0.000;2022-12-18T04:52:10;19.50;;;12.00;;
47413;SDS011;33163;0.000;0.000;2022-12-18T04:54:37;19.58;;;12.80;;
47413;SDS011;33163;0.000;0.000;2022-12-18T04:57:04;20.00;;;11.85;;
47413;SDS011;33163;0.000;0.000;2022-12-18T04:59:30;21.10;;;12.85;;
47413;SDS011;33163;0.000;0.000;2022-12-18T05:01:57;24.98;;;13.23;;
47413;SDS011;33163;0.000;0.000;2022-12-18T05:04:24;22.35;;;13.32;;
47413;SDS011;33163;0.000;0.000;2022-12-18T05:06:52;19.52;;;12.18;;
47413;SDS011;33163;0.000;0.000;2022-12-18T05:09:19;19.98;;;11.80;;
47413;SDS011;33163;0.000;0.000;2022-12-18T05:11:45;22.15;;;12.52;;
47413;SDS011;33163;0.000;0.000;2022-12-18T05:14:12;21.15;;;12.80;;
47413;SDS011;33163;0.000;0.000;2022-12-18T05:16:39;18.80;;;11.57;;
47413;SDS011;33163;0.000;0.000;2022-12-18T05:19:06;21.38;;;12.80;;
47413;SDS011;33163;0.000;0.000;2022-12-18T05:21:32;19.52;;;11.57;;
47413;SDS011;33163;0.000;0.000;2022-12-18T05:24:00;24.23;;;13.57;;
47413;SDS011;33163;0.000;0.000;2022-12-18T05:26:27;19.88;;;12.57;;
47413;SDS011;33163;0.000;0.000;2022-12-18T05:28:54;22.13;;;11.60;;
47413;SDS011;33163;0.000;0.000;2022-12-18T05:31:20;22.50;;;12.57;;
47413;SDS011;33163;0.000;0.000;2022-12-18T05:33:47;18.08;;;11.68;;
47413;SDS011;33163;0.000;0.000;2022-12-18T05:36:14;23.17;;;12.68;;
47413;SDS011;33163;0.000;0.000;2022-12-18T05:38:41;19.23;;;11.68;;
47413;SDS011;33163;0.000;0.000;2022-12-18T05:41:09;20.48;;;11.05;;
47413;SDS011;33163;0.000;0.000;2022-12-18T05:43:36;17.98;;;11.57;;
47413;SDS011;33163;0.000;0.000;2022-12-18T05:46:05;20.77;;;12.43;;
47413;SDS011;33163;0.000;0.000;2022-12-18T05:48:33;21.20;;;11.95;;
47413;SDS011;33163;0.000;0.000;2022-12-18T05:51:03;22.13;;;12.48;;
47413;SDS011;33163;0.000;0.000;2022-12-18T05:53:32;19.10;;;11.80;;
47413;SDS011;33163;0.000;0.000;2022-12-18T05:55:59;17.73;;;10.82;;
47413;SDS011;33163;0.000;0.000;2022-12-18T05:58:28;20.60;;;12.15;;
47413;SDS011;33163;0.000;0.000;2022-12-18T06:00:55;19.65;;;10.77;;
47413;SDS011;33163;0.000;0.000;2022-12-18T06:03:22;23.00;;;12.57;;
47413;SDS011;33163;0.000;0.000;2022-12-18T06:05:49;18.83;;;11.52;;
47413;SDS011;33163;0.000;0.000;2022-12-18T06:08:16;17.15;;;10.82;;
47413;SDS011;33163;0.000;0.000;2022-12-18T06:10:48;17.95;;;10.68;;
47413;SDS011;33163;0.000;0.000;2022-12-18T06:13:17;17.73;;;10.40;;
47413;SDS011;33163;0.000;0.000;2022-12-18T06:15:45;17.05;;;10.48;;
47413;SDS011;33163;0.000;0.000;2022-12-18T06:18:12;16.83;;;10.70;;
47413;SDS011;33163;0.000;0.000;2022-12-18T06:20:39;16.98;;;11.52;;
47413;SDS011;33163;0.000;0.000;2022-12-18T06:23:06;18.83;;;11.25;;
47413;SDS011;33163;0.000;0.000;2022-12-18T06:25:33;18.88;;;11.20;;
47413;SDS011;33163;0.000;0.000;2022-12-18T06:28:03;19.33;;;11.05;;
47413;SDS011;33163;0.000;0.000;2022-12-18T06:30:30;18.48;;;10.63;;
47413;SDS011;33163;0.000;0.000;2022-12-18T06:32:58;20.55;;;10.82;;
47413;SDS011;33163;0.000;0.000;2022-12-18T06:35:25;13.75;;;9.48;;
47413;SDS011;33163;0.000;0.000;2022-12-18T06:37:51;15.43;;;10.27;;
47413;SDS011;33163;0.000;0.000;2022-12-18T06:40:18;18.15;;;11.13;;
47413;SDS011;33163;0.000;0.000;2022-12-18T06:42:45;16.33;;;10.35;;
47413;SDS011;33163;0.000;0.000;2022-12-18T06:45:15;14.77;;;10.00;;
47413;SDS011;33163;0.000;0.000;2022-12-18T06:47:41;17.65;;;10.77;;
47413;SDS011;33163;0.000;0.000;2022-12-18T06:50:10;15.82;;;9.35;;
47413;SDS011;33163;0.000;0.000;2022-12-18T06:52:37;14.18;;;9.38;;
47413;SDS011;33163;0.000;0.000;2022-12-18T06:55:05;14.95;;;10.15;;
47413;SDS011;33163;0.000;0.000;2022-12-18T06:57:33;15.77;;;10.23;;
47413;SDS011;33163;0.000;0.000;2022-12-18T06:59:59;16.08;;;10.02;;
47413;SDS011;33163;0.000;0.000;2022-12-18T07:02:27;17.23;;;10.55;;
47413;SDS011;33163;0.000;0.000;2022-12-18T07:04:54;13.75;;;9.43;;
47413;SDS011;33163;0.000;0.000;2022-12-18T07:07:22;13.60;;;8.75;;
47413;SDS011;33163;0.000;0.000;2022-12-18T07:09:49;14.82;;;9.57;;
47413;SDS011;33163;0.000;0.000;2022-12-18T07:12:16;15.88;;;10.60;;
47413;SDS011;33163;0.000;0.000;2022-12-18T07:14:43;13.93;;;8.77;;
47413;SDS011;33163;0.000;0.000;2022-12-18T07:17:10;16.33;;;9.98;;
47413;SDS011;33163;0.000;0.000;2022-12-18T07:19:37;15.48;;;9.02;;
47413;SDS011;33163;0.000;0.000;2022-12-18T07:22:03;13.07;;;8.60;;
47413;SDS011;33163;0.000;0.000;2022-12-18T07:24:33;13.23;;;8.48;;
47413;SDS011;33163;0.000;0.000;2022-12-18T07:27:00;16.92;;;9.48;;
47413;SDS011;33163;0.000;0.000;2022-12-18T07:29:26;14.43;;;8.57;;
47413;SDS011;33163;0.000;0.000;2022-12-18T07:31:53;14.25;;;8.20;;
47413;SDS011;33163;0.000;0.000;2022-12-18T07:34:20;13.40;;;8.90;;
47413;SDS011;33163;0.000;0.000;2022-12-18T07:36:47;14.35;;;9.07;;
47413;SDS011;33163;0.000;0.000;2022-12-18T07:39:13;13.90;;;8.13;;
47413;SDS011;33163;0.000;0.000;2022-12-18T07:41:42;12.52;;;8.20;;
47413;SDS011;33163;0.000;0.000;2022-12-18T07:44:10;13.10;;;8.15;;
47413;SDS011;33163;0.000;0.000;2022-12-18T07:46:37;15.57;;;8.80;;
47413;SDS011;33163;0.000;0.000;2022-12-18T07:49:04;14.18;;;9.52;;
47413;SDS011;33163;0.000;0.000;2022-12-18T07:51:31;15.68;;;8.60;;
47413;SDS011;33163;0.000;0.000;2022-12-18T07:53:58;11.27;;;7.82;;
47413;SDS011;33163;0.000;0.000;2022-12-18T07:56:25;13.77;;;8.15;;
47413;SDS011;33163;0.000;0.000;2022-12-18T07:58:53;13.10;;;9.05;;
47413;SDS011;33163;0.000;0.000;2022-12-18T08:01:20;12.80;;;8.25;;
47413;SDS011;33163;0.000;0.000;2022-12-18T08:03:46;12.43;;;7.80;;
47413;SDS011;33163;0.000;0.000;2022-12-18T08:06:13;14.88;;;7.68;;
47413;SDS011;33163;0.000;0.000;2022-12-18T08:08:40;11.52;;;7.90;;
47413;SDS011;33163;0.000;0.000;2022-12-18T08:11:07;12.63;;;8.75;;
47413;SDS011;33163;0.000;0.000;2022-12-18T08:13:34;12.65;;;7.05;;
47413;SDS011;33163;0.000;0.000;2022-12-18T08:16:02;13.68;;;8.65;;
47413;SDS011;33163;0.000;0.000;2022-12-18T08:18:31;13.45;;;7.63;;
47413;SDS011;33163;0.000;0.000;2022-12-18T08:21:06;20.83;;;8.07;;
47413;SDS011;33163;0.000;0.000;2022-12-18T08:23:34;13.63;;;7.70;;
47413;SDS011;33163;0.000;0.000;2022-12-18T08:26:00;13.73;;;7.85;;
47413;SDS011;33163;0.000;0.000;2022-12-18T08:28:27;9.13;;;6.47;;
47413;SDS011;33163;0.000;0.000;2022-12-18T08:30:54;10.45;;;7.13;;
47413;SDS011;33163;0.000;0.000;2022-12-18T08:33:22;11.75;;;7.63;;
47413;SDS011;33163;0.000;0.000;2022-12-18T08:35:49;10.30;;;7.22;;
47413;SDS011;33163;0.000;0.000;2022-12-18T08:38:16;12.45;;;7.53;;
47413;SDS011;33163;0.000;0.000;2022-12-18T08:40:42;13.90;;;8.75;;
47413;SDS011;33163;0.000;0.000;2022-12-18T08:43:09;11.27;;;7.25;;
47413;SDS011;33163;0.000;0.000;2022-12-18T08:45:54;10.45;;;6.85;;
47413;SDS011;33163;0.000;0.000;2022-12-18T08:48:22;9.80;;;6.80;;
47413;SDS011;33163;0.000;0.000;2022-12-18T08:50:53;15.82;;;8.23;;
47413;SDS011;33163;0.000;0.000;2022-12-18T08:53:21;10.98;;;6.60;;
47413;SDS011;33163;0.000;0.000;2022-12-18T08:55:51;10.63;;;7.40;;
47413;SDS011;33163;0.000;0.000;2022-12-18T08:58:18;15.07;;;7.40;;
47413;SDS011;33163;0.000;0.000;2022-12-18T09:00:44;12.68;;;7.88;;
47413;SDS011;33163;0.000;0.000;2022-12-18T09:03:11;9.30;;;6.25;;
47413;SDS011;33163;0.000;0.000;2022-12-18T09:05:40;11.80;;;6.88;;
47413;SDS011;33163;0.000;0.000;2022-12-18T09:08:07;12.63;;;7.15;;
47413;SDS011;33163;0.000;0.000;2022-12-18T09:10:34;10.57;;;7.10;;
47413;SDS011;33163;0.000;0.000;2022-12-18T09:13:06;12.32;;;6.80;;
47413;SDS011;33163;0.000;0.000;2022-12-18T09:15:33;19.15;;;7.70;;
47413;SDS011;33163;0.000;0.000;2022-12-18T09:18:00;10.32;;;6.07;;
47413;SDS011;33163;0.000;0.000;2022-12-18T09:20:27;11.55;;;7.40;;
47413;SDS011;33163;0.000;0.000;2022-12-18T09:22:56;10.60;;;6.88;;
47413;SDS011;33163;0.000;0.000;2022-12-18T09:25:22;13.45;;;6.93;;
47413;SDS011;33163;0.000;0.000;2022-12-18T09:27:49;16.05;;;7.03;;
47413;SDS011;33163;0.000;0.000;2022-12-18T09:30:16;10.23;;;6.97;;
47413;SDS011;33163;0.000;0.000;2022-12-18T09:32:43;10.48;;;6.85;;
47413;SDS011;33163;0.000;0.000;2022-12-18T09:35:09;11.82;;;7.60;;
47413;SDS011;33163;0.000;0.000;2022-12-18T09:37:36;11.93;;;7.07;;
47413;SDS011;33163;0.000;0.000;2022-12-18T09:40:05;11.98;;;7.75;;
47413;SDS011;33163;0.000;0.000;2022-12-18T09:42:32;11.05;;;7.18;;
47413;SDS011;33163;0.000;0.000;2022-12-18T09:44:59;12.68;;;6.80;;
47413;SDS011;33163;0.000;0.000;2022-12-18T09:47:27;10.45;;;6.53;;
47413;SDS011;33163;0.000;0.000;2022-12-18T09:49:57;13.60;;;7.25;;
47413;SDS011;33163;0.000;0.000;2022-12-18T09:52:27;11.05;;;7.03;;
47413;SDS011;33163;0.000;0.000;2022-12-18T09:54:59;9.05;;;6.30;;
47413;SDS011;33163;0.000;0.000;2022-12-18T09:57:33;12.02;;;6.35;;
47413;SDS011;33163;0.000;0.000;2022-12-18T10:00:08;11.93;;;5.95;;
47413;SDS011;33163;0.000;0.000;2022-12-18T10:02:42;15.32;;;7.00;;
47413;SDS011;33163;0.000;0.000;2022-12-18T10:05:10;11.02;;;6.68;;
47413;SDS011;33163;0.000;0.000;2022-12-18T10:07:42;9.52;;;6.28;;
47413;SDS011;33163;0.000;0.000;2022-12-18T10:10:19;12.90;;;7.35;;
47413;SDS011;33163;0.000;0.000;2022-12-18T10:12:59;12.60;;;6.60;;
47413;SDS011;33163;0.000;0.000;2022-12-18T10:15:34;9.75;;;6.45;;
47413;SDS011;33163;0.000;0.000;2022-12-18T10:18:11;11.60;;;6.75;;
47413;SDS011;33163;0.000;0.000;2022-12-18T10:20:49;12.57;;;6.60;;
47413;SDS011;33163;0.000;0.000;2022-12-18T10:23:20;11.27;;;6.68;;
47413;SDS011;33163;0.000;0.000;2022-12-18T10:25:52;9.95;;;6.20;;
47413;SDS011;33163;0.000;0.000;2022-12-18T10:28:24;10.73;;;6.03;;
47413;SDS011;33163;0.000;0.000;2022-12-18T10:30:52;14.27;;;6.50;;
47413;SDS011;33163;0.000;0.000;2022-12-18T10:33:20;15.20;;;6.18;;
47413;SDS011;33163;0.000;0.000;2022-12-18T10:35:49;10.05;;;6.07;;
47413;SDS011;33163;0.000;0.000;2022-12-18T10:38:21;10.75;;;6.50;;
47413;SDS011;33163;0.000;0.000;2022-12-18T10:40:51;9.48;;;5.80;;
47413;SDS011;33163;0.000;0.000;2022-12-18T10:43:21;10.50;;;6.45;;
47413;SDS011;33163;0.000;0.000;2022-12-18T10:46:11;8.52;;;5.20;;
47413;SDS011;33163;0.000;0.000;2022-12-18T10:48:47;8.88;;;5.57;;
47413;SDS011;33163;0.000;0.000;2022-12-18T10:51:21;14.70;;;6.60;;
47413;SDS011;33163;0.000;0.000;2022-12-18T10:53:54;12.73;;;6.35;;
47413;SDS011;33163;0.000;0.000;2022-12-18T10:56:23;10.38;;;5.60;;
47413;SDS011;33163;0.000;0.000;2022-12-18T10:58:56;9.35;;;5.75;;
47413;SDS011;33163;0.000;0.000;2022-12-18T11:01:28;13.52;;;6.18;;
47413;SDS011;33163;0.000;0.000;2022-12-18T11:04:13;10.75;;;6.15;;
47413;SDS011;33163;0.000;0.000;2022-12-18T11:06:52;16.52;;;6.93;;
47413;SDS011;33163;0.000;0.000;2022-12-18T11:09:21;10.40;;;5.93;;
47413;SDS011;33163;0.000;0.000;2022-12-18T11:11:49;14.80;;;6.65;;
47413;SDS011;33163;0.000;0.000;2022-12-18T11:14:20;11.30;;;6.00;;
47413;SDS011;33163;0.000;0.000;2022-12-18T11:16:50;18.02;;;6.43;;
47413;SDS011;33163;0.000;0.000;2022-12-18T11:22:02;10.43;;;5.60;;
47413;SDS011;33163;0.000;0.000;2022-12-18T11:24:49;7.65;;;5.65;;
47413;SDS011;33163;0.000;0.000;2022-12-18T11:27:20;9.98;;;5.85;;
47413;SDS011;33163;0.000;0.000;2022-12-18T11:29:47;8.80;;;6.05;;
47413;SDS011;33163;0.000;0.000;2022-12-18T11:32:22;10.75;;;6.05;;
47413;SDS011;33163;0.000;0.000;2022-12-18T11:34:58;8.05;;;5.50;;
47413;SDS011;33163;0.000;0.000;2022-12-18T11:37:29;10.52;;;5.97;;
47413;SDS011;33163;0.000;0.000;2022-12-18T11:39:57;8.73;;;6.03;;
47413;SDS011;33163;0.000;0.000;2022-12-18T11:42:30;10.15;;;6.25;;
47413;SDS011;33163;0.000;0.000;2022-12-18T11:45:03;10.75;;;6.72;;
47413;SDS011;33163;0.000;0.000;2022-12-18T11:47:48;8.52;;;5.88;;
47413;SDS011;33163;0.000;0.000;2022-12-18T11:50:21;11.52;;;6.15;;
47413;SDS011;33163;0.000;0.000;2022-12-18T11:52:50;12.95;;;5.93;;
47413;SDS011;33163;0.000;0.000;2022-12-18T11:55:19;11.02;;;5.30;;
47413;SDS011;33163;0.000;0.000;2022-12-18T11:57:58;8.75;;;5.78;;
47413;SDS011;33163;0.000;0.000;2022-12-18T12:00:33;9.23;;;5.70;;
47413;SDS011;33163;0.000;0.000;2022-12-18T12:03:16;11.38;;;6.18;;
47413;SDS011;33163;0.000;0.000;2022-12-18T12:06:07;11.93;;;6.22;;
47413;SDS011;33163;0.000;0.000;2022-12-18T12:08:44;19.55;;;6.05;;
47413;SDS011;33163;0.000;0.000;2022-12-18T12:11:27;17.80;;;7.53;;
47413;SDS011;33163;0.000;0.000;2022-12-18T12:14:05;14.98;;;6.90;;
47413;SDS011;33163;0.000;0.000;2022-12-18T12:16:43;11.43;;;6.55;;
47413;SDS011;33163;0.000;0.000;2022-12-18T12:19:22;10.75;;;6.57;;
47413;SDS011;33163;0.000;0.000;2022-12-18T12:22:03;14.90;;;7.13;;
47413;SDS011;33163;0.000;0.000;2022-12-18T12:24:39;13.98;;;6.95;;
47413;SDS011;33163;0.000;0.000;2022-12-18T12:27:18;12.98;;;6.43;;
47413;SDS011;33163;0.000;0.000;2022-12-18T12:29:52;13.85;;;7.18;;
47413;SDS011;33163;0.000;0.000;2022-12-18T12:32:30;13.93;;;6.90;;
47413;SDS011;33163;0.000;0.000;2022-12-18T12:35:15;16.02;;;6.80;;
47413;SDS011;33163;0.000;0.000;2022-12-18T12:37:55;11.55;;;6.63;;
47413;SDS011;33163;0.000;0.000;2022-12-18T12:40:31;11.23;;;6.25;;
47413;SDS011;33163;0.000;0.000;2022-12-18T12:43:01;12.50;;;6.97;;
47413;SDS011;33163;0.000;0.000;2022-12-18T12:45:41;11.35;;;5.63;;
47413;SDS011;33163;0.000;0.000;2022-12-18T12:48:15;9.57;;;5.97;;
47413;SDS011;33163;0.000;0.000;2022-12-18T12:50:48;10.52;;;6.20;;
47413;SDS011;33163;0.000;0.000;2022-12-18T12:53:21;13.50;;;5.72;;
47413;SDS011;33163;0.000;0.000;2022-12-18T12:55:52;8.55;;;5.35;;
47413;SDS011;33163;0.000;0.000;2022-12-18T12:58:22;8.25;;;5.38;;
47413;SDS011;33163;0.000;0.000;2022-12-18T13:01:00;11.52;;;5.72;;
47413;SDS011;33163;0.000;0.000;2022-12-18T13:03:36;10.48;;;5.30;;
47413;SDS011;33163;0.000;0.000;2022-12-18T13:06:14;8.15;;;5.22;;
47413;SDS011;33163;0.000;0.000;2022-12-18T13:08:54;9.57;;;5.43;;
47413;SDS011;33163;0.000;0.000;2022-12-18T13:11:30;8.13;;;5.28;;
47413;SDS011;33163;0.000;0.000;2022-12-18T13:14:20;8.52;;;5.20;;
47413;SDS011;33163;0.000;0.000;2022-12-18T13:16:48;7.47;;;4.75;;
47413;SDS011;33163;0.000;0.000;2022-12-18T13:19:20;8.10;;;5.22;;
47413;SDS011;33163;0.000;0.000;2022-12-18T13:21:53;11.85;;;5.38;;
47413;SDS011;33163;0.000;0.000;2022-12-18T13:24:23;10.45;;;5.47;;
47413;SDS011;33163;0.000;0.000;2022-12-18T13:26:51;7.55;;;4.75;;
47413;SDS011;33163;0.000;0.000;2022-12-18T13:32:18;11.65;;;4.75;;
47413;SDS011;33163;0.000;0.000;2022-12-18T13:34:46;11.27;;;5.25;;
47413;SDS011;33163;0.000;0.000;2022-12-18T13:43:24;6.72;;;4.82;;
47413;SDS011;33163;0.000;0.000;2022-12-18T13:46:01;7.57;;;5.00;;
47413;SDS011;33163;0.000;0.000;2022-12-18T13:48:31;6.88;;;4.60;;
47413;SDS011;33163;0.000;0.000;2022-12-18T13:51:00;9.00;;;4.80;;
47413;SDS011;33163;0.000;0.000;2022-12-18T13:53:32;7.55;;;4.82;;
47413;SDS011;33163;0.000;0.000;2022-12-18T13:56:02;7.30;;;5.00;;
47413;SDS011;33163;0.000;0.000;2022-12-18T13:58:29;6.53;;;4.28;;
47413;SDS011;33163;0.000;0.000;2022-12-18T14:00:56;7.63;;;5.03;;
47413;SDS011;33163;0.000;0.000;2022-12-18T14:03:25;9.68;;;4.97;;
47413;SDS011;33163;0.000;0.000;2022-12-18T14:05:54;8.60;;;5.53;;
47413;SDS011;33163;0.000;0.000;2022-12-18T14:08:24;7.28;;;4.43;;
47413;SDS011;33163;0.000;0.000;2022-12-18T14:10:58;7.10;;;4.53;;
47413;SDS011;33163;0.000;0.000;2022-12-18T14:13:27;6.95;;;4.60;;
47413;SDS011;33163;0.000;0.000;2022-12-18T14:15:56;7.30;;;4.90;;
47413;SDS011;33163;0.000;0.000;2022-12-18T14:18:25;8.10;;;4.70;;
47413;SDS011;33163;0.000;0.000;2022-12-18T14:20:57;8.82;;;4.90;;
47413;SDS011;33163;0.000;0.000;2022-12-18T14:23:30;6.80;;;5.10;;
47413;SDS011;33163;0.000;0.000;2022-12-18T14:26:00;6.45;;;4.72;;
47413;SDS011;33163;0.000;0.000;2022-12-18T14:28:29;6.72;;;4.68;;
47413;SDS011;33163;0.000;0.000;2022-12-18T14:30:56;5.45;;;4.35;;
47413;SDS011;33163;0.000;0.000;2022-12-18T14:33:23;5.72;;;4.43;;
47413;SDS011;33163;0.000;0.000;2022-12-18T14:35:57;7.20;;;5.03;;
47413;SDS011;33163;0.000;0.000;2022-12-18T14:40:55;8.32;;;4.38;;
47413;SDS011;33163;0.000;0.000;2022-12-18T14:43:28;5.47;;;4.03;;
47413;SDS011;33163;0.000;0.000;2022-12-18T14:45:56;6.25;;;4.70;;
47413;SDS011;33163;0.000;0.000;2022-12-18T14:48:30;7.88;;;5.43;;
47413;SDS011;33163;0.000;0.000;2022-12-18T14:51:02;6.18;;;4.50;;
47413;SDS011;33163;0.000;0.000;2022-12-18T14:53:32;6.65;;;4.47;;
47413;SDS011;33163;0.000;0.000;2022-12-18T14:56:12;7.72;;;4.60;;
47413;SDS011;33163;0.000;0.000;2022-12-18T14:58:48;6.35;;;4.32;;
47413;SDS011;33163;0.000;0.000;2022-12-18T15:01:18;7.03;;;4.40;;
47413;SDS011;33163;0.000;0.000;2022-12-18T15:03:49;6.57;;;4.13;;
47413;SDS011;33163;0.000;0.000;2022-12-18T15:06:17;4.82;;;4.07;;
47413;SDS011;33163;0.000;0.000;2022-12-18T15:08:50;7.18;;;4.57;;
47413;SDS011;33163;0.000;0.000;2022-12-18T15:11:29;5.55;;;4.45;;
47413;SDS011;33163;0.000;0.000;2022-12-18T15:16:52;9.82;;;5.03;;
47413;SDS011;33163;0.000;0.000;2022-12-18T15:19:20;8.20;;;4.53;;
47413;SDS011;33163;0.000;0.000;2022-12-18T15:21:49;5.65;;;4.20;;
47413;SDS011;33163;0.000;0.000;2022-12-18T15:24:19;6.15;;;4.38;;